sensor_id;sensor_type;location;lat;lon;timestamp;P1;durP1;ratioP1;P2;durP2;ratioP2
47762;SDS011;33526;42.690;23.322;2024-01-30T00:01:53;12.38;;;5.75;;
47762;SDS011;33526;42.690;23.322;2024-01-30T00:04:19;9.80;;;5.50;;
47762;SDS011;33526;42.690;23.322;2024-01-30T00:06:46;9.95;;;5.38;;
47762;SDS011;33526;42.690;23.322;2024-01-30T00:09:24;10.93;;;5.40;;
47762;SDS011;33526;42.690;23.322;2024-01-30T00:11:51;11.10;;;5.60;;
47762;SDS011;33526;42.690;23.322;2024-01-30T00:14:22;9.70;;;4.85;;
47762;SDS011;33526;42.690;23.322;2024-01-30T00:16:48;9.73;;;5.45;;
47762;SDS011;33526;42.690;23.322;2024-01-30T00:19:18;9.57;;;4.85;;
47762;SDS011;33526;42.690;23.322;2024-01-30T00:21:48;8.80;;;4.65;;
47762;SDS011;33526;42.690;23.322;2024-01-30T00:24:16;10.10;;;5.60;;
47762;SDS011;33526;42.690;23.322;2024-01-30T00:26:43;8.23;;;4.88;;
47762;SDS011;33526;42.690;23.322;2024-01-30T00:29:09;10.05;;;4.85;;
47762;SDS011;33526;42.690;23.322;2024-01-30T00:31:35;8.40;;;4.20;;
47762;SDS011;33526;42.690;23.322;2024-01-30T00:34:02;11.70;;;5.25;;
47762;SDS011;33526;42.690;23.322;2024-01-30T00:36:29;8.20;;;4.63;;
47762;SDS011;33526;42.690;23.322;2024-01-30T00:38:56;9.77;;;5.38;;
47762;SDS011;33526;42.690;23.322;2024-01-30T00:41:27;13.00;;;5.78;;
47762;SDS011;33526;42.690;23.322;2024-01-30T00:43:59;12.98;;;5.72;;
47762;SDS011;33526;42.690;23.322;2024-01-30T00:46:26;8.95;;;5.15;;
47762;SDS011;33526;42.690;23.322;2024-01-30T00:48:55;9.15;;;5.20;;
47762;SDS011;33526;42.690;23.322;2024-01-30T00:51:27;10.27;;;5.32;;
47762;SDS011;33526;42.690;23.322;2024-01-30T00:53:55;8.27;;;4.88;;
47762;SDS011;33526;42.690;23.322;2024-01-30T00:56:20;11.20;;;5.57;;
47762;SDS011;33526;42.690;23.322;2024-01-30T00:58:46;8.60;;;4.53;;
47762;SDS011;33526;42.690;23.322;2024-01-30T01:01:12;11.40;;;4.93;;
47762;SDS011;33526;42.690;23.322;2024-01-30T01:06:07;9.50;;;5.03;;
47762;SDS011;33526;42.690;23.322;2024-01-30T01:08:32;8.55;;;4.60;;
47762;SDS011;33526;42.690;23.322;2024-01-30T01:10:59;10.25;;;5.00;;
47762;SDS011;33526;42.690;23.322;2024-01-30T01:13:24;13.93;;;5.65;;
47762;SDS011;33526;42.690;23.322;2024-01-30T01:15:49;8.90;;;4.22;;
47762;SDS011;33526;42.690;23.322;2024-01-30T01:18:15;11.45;;;6.15;;
47762;SDS011;33526;42.690;23.322;2024-01-30T01:20:40;8.45;;;4.65;;
47762;SDS011;33526;42.690;23.322;2024-01-30T01:23:06;14.73;;;5.60;;
47762;SDS011;33526;42.690;23.322;2024-01-30T01:25:31;8.82;;;4.38;;
47762;SDS011;33526;42.690;23.322;2024-01-30T01:27:57;9.63;;;5.28;;
47762;SDS011;33526;42.690;23.322;2024-01-30T01:30:22;11.88;;;4.97;;
47762;SDS011;33526;42.690;23.322;2024-01-30T01:32:49;8.25;;;4.32;;
47762;SDS011;33526;42.690;23.322;2024-01-30T01:35:24;9.63;;;5.28;;
47762;SDS011;33526;42.690;23.322;2024-01-30T01:37:51;9.30;;;4.60;;
47762;SDS011;33526;42.690;23.322;2024-01-30T01:40:26;7.45;;;4.55;;
47762;SDS011;33526;42.690;23.322;2024-01-30T01:42:53;8.57;;;4.68;;
47762;SDS011;33526;42.690;23.322;2024-01-30T01:47:58;9.35;;;4.70;;
47762;SDS011;33526;42.690;23.322;2024-01-30T01:50:27;9.27;;;4.68;;
47762;SDS011;33526;42.690;23.322;2024-01-30T01:52:54;7.07;;;4.60;;
47762;SDS011;33526;42.690;23.322;2024-01-30T01:55:24;10.27;;;5.47;;
47762;SDS011;33526;42.690;23.322;2024-01-30T01:58:03;9.10;;;5.25;;
47762;SDS011;33526;42.690;23.322;2024-01-30T06:22:53;10.32;;;4.50;;
47762;SDS011;33526;42.690;23.322;2024-01-30T06:25:19;14.15;;;4.07;;
47762;SDS011;33526;42.690;23.322;2024-01-30T06:27:44;11.60;;;4.53;;
47762;SDS011;33526;42.690;23.322;2024-01-30T06:30:13;7.38;;;3.75;;
47762;SDS011;33526;42.690;23.322;2024-01-30T06:33:02;6.72;;;3.15;;
47762;SDS011;33526;42.690;23.322;2024-01-30T06:35:42;8.88;;;3.05;;
47762;SDS011;33526;42.690;23.322;2024-01-30T06:38:12;5.53;;;2.70;;
47762;SDS011;33526;42.690;23.322;2024-01-30T06:41:04;9.00;;;2.88;;
47762;SDS011;33526;42.690;23.322;2024-01-30T06:46:01;7.65;;;3.95;;
47762;SDS011;33526;42.690;23.322;2024-01-30T06:48:47;6.93;;;3.30;;
47762;SDS011;33526;42.690;23.322;2024-01-30T06:51:25;9.70;;;3.97;;
47762;SDS011;33526;42.690;23.322;2024-01-30T06:53:53;19.58;;;4.43;;
47762;SDS011;33526;42.690;23.322;2024-01-30T06:56:39;11.80;;;4.88;;
47762;SDS011;33526;42.690;23.322;2024-01-30T06:59:11;12.48;;;4.50;;
47762;SDS011;33526;42.690;23.322;2024-01-30T07:15:24;6.13;;;3.78;;
47762;SDS011;33526;42.690;23.322;2024-01-30T07:23:07;11.27;;;4.10;;
47762;SDS011;33526;42.690;23.322;2024-01-30T07:26:19;10.48;;;4.20;;
47762;SDS011;33526;42.690;23.322;2024-01-30T07:29:40;8.00;;;3.92;;
47762;SDS011;33526;42.690;23.322;2024-01-30T18:56:05;24.38;;;11.63;;
47762;SDS011;33526;42.690;23.322;2024-01-30T18:58:33;24.95;;;11.75;;
47762;SDS011;33526;42.690;23.322;2024-01-30T19:00:58;27.02;;;14.73;;
47762;SDS011;33526;42.690;23.322;2024-01-30T19:03:24;31.25;;;14.18;;
47762;SDS011;33526;42.690;23.322;2024-01-30T19:06:15;23.65;;;12.02;;
47762;SDS011;33526;42.690;23.322;2024-01-30T19:08:42;22.02;;;10.65;;
47762;SDS011;33526;42.690;23.322;2024-01-30T19:11:18;38.50;;;13.38;;
47762;SDS011;33526;42.690;23.322;2024-01-30T19:13:44;30.55;;;13.75;;
47762;SDS011;33526;42.690;23.322;2024-01-30T19:16:11;23.40;;;9.82;;
47762;SDS011;33526;42.690;23.322;2024-01-30T19:19:00;25.13;;;10.70;;
47762;SDS011;33526;42.690;23.322;2024-01-30T19:21:31;25.45;;;12.15;;
47762;SDS011;33526;42.690;23.322;2024-01-30T19:23:57;18.52;;;8.48;;
47762;SDS011;33526;42.690;23.322;2024-01-30T19:26:26;21.80;;;10.60;;
47762;SDS011;33526;42.690;23.322;2024-01-30T19:28:53;18.42;;;8.77;;
47762;SDS011;33526;42.690;23.322;2024-01-30T19:31:19;16.95;;;8.52;;
47762;SDS011;33526;42.690;23.322;2024-01-30T19:33:44;17.33;;;8.43;;
47762;SDS011;33526;42.690;23.322;2024-01-30T19:36:10;14.30;;;7.43;;
47762;SDS011;33526;42.690;23.322;2024-01-30T19:38:43;13.52;;;6.80;;
47762;SDS011;33526;42.690;23.322;2024-01-30T19:41:26;17.45;;;8.27;;
47762;SDS011;33526;42.690;23.322;2024-01-30T19:44:06;15.60;;;7.55;;
47762;SDS011;33526;42.690;23.322;2024-01-30T19:46:36;18.83;;;8.48;;
47762;SDS011;33526;42.690;23.322;2024-01-30T19:49:03;15.63;;;7.57;;
47762;SDS011;33526;42.690;23.322;2024-01-30T19:51:37;16.27;;;8.02;;
47762;SDS011;33526;42.690;23.322;2024-01-30T19:54:33;23.00;;;8.60;;
47762;SDS011;33526;42.690;23.322;2024-01-30T19:57:09;21.77;;;9.05;;
47762;SDS011;33526;42.690;23.322;2024-01-30T19:59:35;15.27;;;7.40;;
47762;SDS011;33526;42.690;23.322;2024-01-30T20:02:00;17.35;;;8.25;;
47762;SDS011;33526;42.690;23.322;2024-01-30T20:04:26;23.13;;;9.80;;
47762;SDS011;33526;42.690;23.322;2024-01-30T20:06:52;27.42;;;11.55;;
47762;SDS011;33526;42.690;23.322;2024-01-30T20:09:21;28.48;;;12.52;;
47762;SDS011;33526;42.690;23.322;2024-01-30T20:12:07;61.20;;;25.00;;
47762;SDS011;33526;42.690;23.322;2024-01-30T20:14:32;33.22;;;14.20;;
47762;SDS011;33526;42.690;23.322;2024-01-30T20:17:20;21.90;;;10.05;;
47762;SDS011;33526;42.690;23.322;2024-01-30T20:19:46;21.38;;;10.30;;
47762;SDS011;33526;42.690;23.322;2024-01-30T20:22:12;34.70;;;15.93;;
47762;SDS011;33526;42.690;23.322;2024-01-30T20:24:38;39.17;;;15.57;;
47762;SDS011;33526;42.690;23.322;2024-01-30T20:27:05;23.75;;;10.93;;
47762;SDS011;33526;42.690;23.322;2024-01-30T20:29:31;17.40;;;8.68;;
47762;SDS011;33526;42.690;23.322;2024-01-30T20:31:58;31.77;;;13.02;;
47762;SDS011;33526;42.690;23.322;2024-01-30T20:34:25;26.70;;;13.43;;
47762;SDS011;33526;42.690;23.322;2024-01-30T20:36:55;33.60;;;13.85;;
47762;SDS011;33526;42.690;23.322;2024-01-30T20:39:24;22.00;;;10.68;;
47762;SDS011;33526;42.690;23.322;2024-01-30T20:41:49;29.00;;;12.50;;
47762;SDS011;33526;42.690;23.322;2024-01-30T20:44:25;26.23;;;11.75;;
47762;SDS011;33526;42.690;23.322;2024-01-30T20:47:30;29.67;;;12.93;;
47762;SDS011;33526;42.690;23.322;2024-01-30T20:50:04;27.60;;;11.88;;
47762;SDS011;33526;42.690;23.322;2024-01-30T21:02:49;52.40;;;22.38;;
47762;SDS011;33526;42.690;23.322;2024-01-30T21:05:17;23.95;;;10.80;;
47762;SDS011;33526;42.690;23.322;2024-01-30T21:07:52;26.10;;;11.30;;
47762;SDS011;33526;42.690;23.322;2024-01-30T21:10:30;27.23;;;11.32;;
47762;SDS011;33526;42.690;23.322;2024-01-30T21:15:23;31.20;;;11.80;;
47762;SDS011;33526;42.690;23.322;2024-01-30T21:17:49;45.22;;;28.35;;
47762;SDS011;33526;42.690;23.322;2024-01-30T21:20:17;33.42;;;12.45;;
47762;SDS011;33526;42.690;23.322;2024-01-30T21:22:44;39.42;;;15.57;;
47762;SDS011;33526;42.690;23.322;2024-01-30T21:25:16;26.45;;;12.60;;
47762;SDS011;33526;42.690;23.322;2024-01-30T21:28:08;34.97;;;17.02;;
47762;SDS011;33526;42.690;23.322;2024-01-30T21:30:55;27.77;;;12.90;;
47762;SDS011;33526;42.690;23.322;2024-01-30T21:33:21;28.63;;;12.68;;
47762;SDS011;33526;42.690;23.322;2024-01-30T21:36:30;32.45;;;13.70;;
47762;SDS011;33526;42.690;23.322;2024-01-30T21:42:21;31.77;;;13.93;;
47762;SDS011;33526;42.690;23.322;2024-01-30T21:45:04;31.63;;;14.57;;
47762;SDS011;33526;42.690;23.322;2024-01-30T21:47:40;61.88;;;25.60;;
47762;SDS011;33526;42.690;23.322;2024-01-30T21:50:59;57.28;;;24.15;;
47762;SDS011;33526;42.690;23.322;2024-01-30T21:53:28;30.15;;;14.15;;
47762;SDS011;33526;42.690;23.322;2024-01-30T21:58:48;31.77;;;14.20;;
47762;SDS011;33526;42.690;23.322;2024-01-30T22:05:14;38.13;;;16.08;;
47762;SDS011;33526;42.690;23.322;2024-01-30T22:08:03;38.20;;;16.73;;
47762;SDS011;33526;42.690;23.322;2024-01-30T22:10:46;40.13;;;18.05;;
47762;SDS011;33526;42.690;23.322;2024-01-30T22:13:57;46.63;;;18.70;;
47762;SDS011;33526;42.690;23.322;2024-01-30T22:16:58;46.58;;;19.38;;
47762;SDS011;33526;42.690;23.322;2024-01-30T22:19:27;51.20;;;22.42;;
47762;SDS011;33526;42.690;23.322;2024-01-30T22:22:18;48.92;;;22.10;;
47762;SDS011;33526;42.690;23.322;2024-01-30T22:28:05;68.28;;;28.73;;
47762;SDS011;33526;42.690;23.322;2024-01-30T22:30:34;73.28;;;32.60;;
47762;SDS011;33526;42.690;23.322;2024-01-30T22:33:03;157.98;;;59.75;;
47762;SDS011;33526;42.690;23.322;2024-01-30T22:35:31;94.78;;;40.42;;
47762;SDS011;33526;42.690;23.322;2024-01-30T22:37:57;68.88;;;30.45;;
47762;SDS011;33526;42.690;23.322;2024-01-30T22:40:30;67.35;;;29.27;;
47762;SDS011;33526;42.690;23.322;2024-01-30T22:43:04;68.70;;;26.90;;
47762;SDS011;33526;42.690;23.322;2024-01-30T22:45:41;60.50;;;25.90;;
47762;SDS011;33526;42.690;23.322;2024-01-30T22:48:32;79.45;;;30.92;;
47762;SDS011;33526;42.690;23.322;2024-01-30T22:50:59;72.55;;;32.80;;
47762;SDS011;33526;42.690;23.322;2024-01-30T22:53:24;74.72;;;32.58;;
47762;SDS011;33526;42.690;23.322;2024-01-30T22:55:50;82.05;;;32.10;;
47762;SDS011;33526;42.690;23.322;2024-01-30T22:58:15;78.53;;;33.17;;
47762;SDS011;33526;42.690;23.322;2024-01-30T23:00:41;72.95;;;31.25;;
47762;SDS011;33526;42.690;23.322;2024-01-30T23:03:06;47.92;;;19.17;;
47762;SDS011;33526;42.690;23.322;2024-01-30T23:05:31;80.25;;;31.00;;
47762;SDS011;33526;42.690;23.322;2024-01-30T23:07:59;88.07;;;29.70;;
47762;SDS011;33526;42.690;23.322;2024-01-30T23:10:25;55.30;;;23.08;;
47762;SDS011;33526;42.690;23.322;2024-01-30T23:12:50;41.83;;;18.45;;
47762;SDS011;33526;42.690;23.322;2024-01-30T23:15:17;41.38;;;16.98;;
47762;SDS011;33526;42.690;23.322;2024-01-30T23:17:42;45.20;;;18.58;;
47762;SDS011;33526;42.690;23.322;2024-01-30T23:20:10;34.80;;;15.85;;
47762;SDS011;33526;42.690;23.322;2024-01-30T23:22:37;38.95;;;15.52;;
47762;SDS011;33526;42.690;23.322;2024-01-30T23:25:04;46.45;;;17.90;;
47762;SDS011;33526;42.690;23.322;2024-01-30T23:27:30;45.00;;;17.67;;
47762;SDS011;33526;42.690;23.322;2024-01-30T23:29:56;51.00;;;20.15;;
47762;SDS011;33526;42.690;23.322;2024-01-30T23:32:23;43.00;;;19.17;;
47762;SDS011;33526;42.690;23.322;2024-01-30T23:37:16;49.70;;;18.73;;
47762;SDS011;33526;42.690;23.322;2024-01-30T23:39:44;41.72;;;17.25;;
47762;SDS011;33526;42.690;23.322;2024-01-30T23:42:11;44.25;;;17.80;;
47762;SDS011;33526;42.690;23.322;2024-01-30T23:44:44;43.25;;;18.15;;
47762;SDS011;33526;42.690;23.322;2024-01-30T23:47:19;40.80;;;17.98;;
47762;SDS011;33526;42.690;23.322;2024-01-30T23:49:44;47.28;;;18.25;;
47762;SDS011;33526;42.690;23.322;2024-01-30T23:54:37;41.75;;;18.27;;
47762;SDS011;33526;42.690;23.322;2024-01-30T23:57:02;47.63;;;19.30;;
47762;SDS011;33526;42.690;23.322;2024-01-30T23:59:28;36.13;;;14.00;;
